X  Schlie├čen METAR Luftfahrt Wetterdaten     EDDM Munich Airport
Temperatur
2°C Temperatur
0°C Taupunkt
87% Feuchtigkeit



Wind
1 m/s
2 MPS
3 km/h
2 Ktn



Kein Wind
N
Aktuelle Wetterlage

Klar Klar
Luftdruck 1000 (hPa) - 29.53 (inchHg)
Sichtweite 6 (Meile) - 9.7 (Km)
Flughafen
Flughafen Code EDDM

Position : Munich Airport
Entfernung: 73 (Km)

Metar:
EDDM 232220Z AUTO VRB02KT CAVOK 02/00 Q1000 NOSIG

Zeit: 23-02-2024 22:20 CET